Time;durP1;ratioP1;P1;durP2;ratioP2;P2;SDS_P1;SDS_P2;PMS_P1;PMS_P2;Temp;Humidity;BMP_temperature;BMP_pressure;BME280_temperature;BME280_humidity;BME280_pressure;Samples;Min_cycle;Max_cycle;Signal;HPM_P1;HPM_P2
2021/12/09 00:01:14;;;;;;;11.70;7.43;;;1.80;99.90;;;;;;5065227;28;20534;-66
2021/12/09 00:03:41;;;;;;;15.95;7.80;;;1.80;99.90;;;;;;5066679;28;20036;-66
2021/12/09 00:06:09;;;;;;;16.98;7.38;;;1.80;99.90;;;;;;5067474;28;20454;-66
2021/12/09 00:08:37;;;;;;;15.80;8.70;;;1.80;99.90;;;;;;5062966;28;20461;-66
2021/12/09 00:11:05;;;;;;;14.20;8.00;;;1.80;99.90;;;;;;5049859;28;20701;-66
2021/12/09 00:13:30;;;;;;;15.55;8.23;;;1.80;99.90;;;;;;5065482;28;20127;-66
2021/12/09 00:15:57;;;;;;;12.93;7.50;;;1.80;99.90;;;;;;5067529;28;20120;-67
2021/12/09 00:18:24;;;;;;;15.65;8.13;;;1.80;99.90;;;;;;5064279;28;20037;-67
2021/12/09 00:20:50;;;;;;;15.13;7.80;;;1.80;99.90;;;;;;5067026;28;20043;-67
2021/12/09 00:23:17;;;;;;;14.48;8.18;;;1.80;99.90;;;;;;5064932;28;20743;-67
2021/12/09 00:25:43;;;;;;;18.08;8.43;;;1.80;99.90;;;;;;5065547;28;20401;-67
2021/12/09 00:28:08;;;;;;;15.32;8.05;;;1.80;99.90;;;;;;5065384;28;20068;-67
2021/12/09 00:30:35;;;;;;;15.20;8.05;;;1.80;99.90;;;;;;5065646;28;20370;-66
2021/12/09 00:33:05;;;;;;;16.00;8.65;;;1.70;99.90;;;;;;5048266;28;20052;-66
2021/12/09 00:35:42;;;;;;;13.30;7.53;;;1.70;99.90;;;;;;5062541;28;20045;-66
2021/12/09 00:38:10;;;;;;;15.45;8.05;;;1.70;99.90;;;;;;5063038;28;20044;-66
2021/12/09 00:40:36;;;;;;;16.08;7.82;;;1.70;99.90;;;;;;5065740;28;20055;-66
2021/12/09 00:43:03;;;;;;;15.00;8.10;;;1.70;99.90;;;;;;5067049;28;20037;-66
2021/12/09 00:45:29;;;;;;;17.48;8.05;;;1.70;99.90;;;;;;5062979;28;20036;-66
2021/12/09 00:47:55;;;;;;;13.75;7.55;;;1.70;99.90;;;;;;5045627;28;20056;-66
2021/12/09 00:50:22;;;;;;;15.93;8.27;;;1.70;99.90;;;;;;5065651;28;20077;-66
2021/12/09 00:52:48;;;;;;;15.10;8.07;;;1.70;99.90;;;;;;5063693;28;20066;-66
2021/12/09 00:55:17;;;;;;;17.95;8.48;;;1.70;99.90;;;;;;5061319;28;21677;-66
2021/12/09 00:57:44;;;;;;;15.20;8.32;;;1.70;99.90;;;;;;5064490;28;20381;-66
2021/12/09 01:00:14;;;;;;;16.10;8.70;;;1.90;99.90;;;;;;5063543;28;20376;-66
2021/12/09 01:02:40;;;;;;;14.20;8.23;;;1.70;99.90;;;;;;5065132;28;20123;-66
2021/12/09 01:05:09;;;;;;;15.98;8.65;;;2.10;99.90;;;;;;5066267;28;20519;-66
2021/12/09 01:07:36;;;;;;;12.35;8.73;;;1.70;99.90;;;;;;5064663;28;20044;-67
2021/12/09 01:10:04;;;;;;;15.57;8.23;;;1.60;99.90;;;;;;5065069;28;20349;-66
2021/12/09 01:12:29;;;;;;;16.40;8.68;;;1.70;99.90;;;;;;5063834;28;20101;-66
2021/12/09 01:14:55;;;;;;;20.23;9.45;;;1.60;99.90;;;;;;5062656;28;20458;-66
2021/12/09 01:17:22;;;;;;;17.10;8.98;;;1.60;99.90;;;;;;5066402;28;20036;-66
2021/12/09 01:19:48;;;;;;;15.35;8.73;;;1.60;99.90;;;;;;5049589;28;20115;-67
2021/12/09 01:22:14;;;;;;;15.88;8.85;;;1.60;99.90;;;;;;5049956;28;20113;-66
2021/12/09 01:24:39;;;;;;;13.60;9.18;;;1.60;99.90;;;;;;5069066;28;20501;-67
2021/12/09 01:27:06;;;;;;;16.77;8.52;;;1.60;99.90;;;;;;5068572;28;20098;-66
2021/12/09 01:29:36;;;;;;;17.65;9.23;;;1.50;99.90;;;;;;5068996;28;20103;-67
2021/12/09 01:32:06;;;;;;;17.98;8.55;;;1.50;99.90;;;;;;5067930;28;20524;-67
2021/12/09 01:34:33;;;;;;;11.90;8.05;;;1.50;99.90;;;;;;5064716;28;20048;-66
2021/12/09 01:37:06;;;;;;;18.88;9.07;;;1.50;99.90;;;;;;5067798;28;20593;-67
2021/12/09 01:39:33;;;;;;;13.88;8.73;;;1.50;99.90;;;;;;5069415;28;20040;-66
2021/12/09 01:41:59;;;;;;;17.48;8.30;;;1.50;99.90;;;;;;5067037;28;20045;-67
2021/12/09 01:44:26;;;;;;;15.88;8.32;;;1.50;99.90;;;;;;5069030;28;20146;-67
2021/12/09 01:46:52;;;;;;;16.17;8.57;;;1.50;99.90;;;;;;5068153;28;20047;-66
2021/12/09 01:49:18;;;;;;;12.95;9.07;;;1.40;99.90;;;;;;5067496;28;20862;-66
2021/12/09 01:51:45;;;;;;;17.40;9.35;;;1.40;99.90;;;;;;5066141;28;20032;-67
2021/12/09 01:54:12;;;;;;;15.60;9.57;;;1.40;99.90;;;;;;5065977;28;20495;-67
2021/12/09 01:56:38;;;;;;;19.48;9.55;;;1.40;99.90;;;;;;5067164;28;20055;-67
2021/12/09 01:59:06;;;;;;;16.65;9.63;;;1.40;99.90;;;;;;5067376;28;20131;-67
2021/12/09 02:01:33;;;;;;;20.67;8.60;;;1.40;99.90;;;;;;5067420;28;20123;-67
2021/12/09 02:04:00;;;;;;;13.27;8.45;;;1.30;99.90;;;;;;5066933;28;20048;-67
2021/12/09 02:06:27;;;;;;;17.52;9.20;;;1.30;99.90;;;;;;5066247;28;20045;-67
2021/12/09 02:08:54;;;;;;;17.40;9.07;;;1.30;99.90;;;;;;5065383;28;20028;-66
2021/12/09 02:11:20;;;;;;;18.15;8.98;;;1.30;99.90;;;;;;5067277;28;20101;-67
2021/12/09 02:13:50;;;;;;;17.48;9.20;;;1.30;99.90;;;;;;5068512;28;20044;-67
2021/12/09 02:16:16;;;;;;;16.20;8.82;;;1.30;99.90;;;;;;5066229;28;20043;-67
2021/12/09 02:18:43;;;;;;;17.67;8.88;;;1.30;99.90;;;;;;5066773;28;20045;-67
2021/12/09 02:21:14;;;;;;;14.05;8.73;;;1.30;99.90;;;;;;5068026;28;20061;-67
2021/12/09 02:29:55;;;;;;;15.35;8.88;;;1.20;99.90;;;;;;5868832;23;20876;-66
2021/12/09 02:32:22;;;;;;;15.60;8.63;;;1.20;99.90;;;;;;5385927;23;20058;-65
2021/12/09 02:37:33;;;;;;;14.07;8.63;;;1.10;99.90;;;;;;5033968;22;20113;-66
2021/12/09 02:39:59;;;;;;;17.63;9.70;;;1.10;99.90;;;;;;4967594;28;20043;-66
2021/12/09 02:42:25;;;;;;;18.15;9.07;;;1.20;99.90;;;;;;4967885;28;20372;-66
2021/12/09 02:44:54;;;;;;;15.00;8.90;;;1.20;99.90;;;;;;4964318;28;20043;-66
2021/12/09 02:47:20;;;;;;;16.90;8.82;;;1.20;99.90;;;;;;4977843;28;20049;-66
2021/12/09 02:49:45;;;;;;;21.60;9.23;;;1.20;99.90;;;;;;4950676;28;20051;-66
2021/12/09 02:52:11;;;;;;;13.48;8.68;;;1.20;99.90;;;;;;4966235;28;20093;-66
2021/12/09 02:54:37;;;;;;;16.98;9.35;;;1.20;99.90;;;;;;4967844;28;20102;-66
2021/12/09 02:57:08;;;;;;;16.40;9.57;;;1.30;99.90;;;;;;4961588;28;20039;-66
2021/12/09 02:59:34;;;;;;;12.90;8.50;;;1.30;99.90;;;;;;4968068;28;20031;-66
2021/12/09 03:02:03;;;;;;;15.93;9.25;;;1.30;99.90;;;;;;4966238;28;20046;-66
2021/12/09 03:04:47;;;;;;;21.63;8.93;;;1.30;99.90;;;;;;4966423;28;20394;-65
2021/12/09 03:07:18;;;;;;;21.65;10.13;;;1.30;99.90;;;;;;4963351;28;20047;-66
2021/12/09 03:09:50;;;;;;;17.60;9.48;;;1.30;99.90;;;;;;4964022;28;20053;-66
2021/12/09 03:12:23;;;;;;;15.30;8.32;;;1.30;99.90;;;;;;4949723;28;20539;-66
2021/12/09 03:14:50;;;;;;;15.73;8.48;;;1.30;99.90;;;;;;4967296;28;20479;-66
2021/12/09 03:17:16;;;;;;;14.15;8.55;;;1.30;99.90;;;;;;4962757;28;20118;-66
2021/12/09 03:19:42;;;;;;;19.30;9.45;;;1.30;99.90;;;;;;4985896;28;20065;-66
2021/12/09 03:22:08;;;;;;;14.23;8.60;;;1.30;99.90;;;;;;4963234;28;20035;-66
2021/12/09 03:24:34;;;;;;;17.20;8.60;;;1.30;99.90;;;;;;4961403;28;20127;-66
2021/12/09 03:27:00;;;;;;;18.70;9.73;;;1.30;99.90;;;;;;4964534;28;20034;-66
2021/12/09 03:29:28;;;;;;;16.90;9.32;;;1.20;99.90;;;;;;4963354;28;20425;-66
2021/12/09 03:31:58;;;;;;;23.90;9.25;;;1.20;99.90;;;;;;4963233;28;20084;-66
2021/12/09 03:34:27;;;;;;;19.35;9.07;;;1.20;99.90;;;;;;4964153;28;20799;-67
2021/12/09 03:36:53;;;;;;;17.23;8.75;;;1.20;99.90;;;;;;4957175;28;20059;-66
2021/12/09 03:39:22;;;;;;;18.25;9.20;;;1.20;99.90;;;;;;4962124;28;20049;-66
2021/12/09 03:41:52;;;;;;;19.58;8.75;;;1.10;99.90;;;;;;4957652;28;20434;-66
2021/12/09 03:44:18;;;;;;;18.65;9.13;;;1.10;99.90;;;;;;4956193;28;20148;-66
2021/12/09 03:46:44;;;;;;;19.48;9.07;;;1.10;99.90;;;;;;4959034;28;20098;-66
2021/12/09 03:49:10;;;;;;;17.85;8.57;;;1.10;99.90;;;;;;4961935;28;20063;-66
2021/12/09 03:51:36;;;;;;;16.20;8.43;;;1.10;99.90;;;;;;4963165;28;20418;-66
2021/12/09 03:54:04;;;;;;;16.95;8.82;;;1.10;99.90;;;;;;4959245;28;20383;-66
2021/12/09 03:56:30;;;;;;;19.02;9.35;;;1.10;99.90;;;;;;4976458;28;20047;-66
2021/12/09 03:58:56;;;;;;;14.25;8.05;;;1.10;99.90;;;;;;4962239;28;20038;-66
2021/12/09 04:01:21;;;;;;;14.82;7.97;;;1.10;99.90;;;;;;4959938;28;20149;-66
2021/12/09 04:03:47;;;;;;;14.70;9.07;;;1.10;99.90;;;;;;4958815;28;20051;-66
2021/12/09 04:06:13;;;;;;;15.02;8.43;;;1.10;99.90;;;;;;4943755;28;20045;-66
2021/12/09 04:08:38;;;;;;;15.00;8.13;;;1.10;99.90;;;;;;4957457;28;20510;-66
2021/12/09 04:11:05;;;;;;;20.15;8.40;;;1.10;99.90;;;;;;4958633;28;20061;-66
2021/12/09 04:13:32;;;;;;;15.50;8.80;;;1.10;99.90;;;;;;4959565;28;20047;-66
2021/12/09 04:15:59;;;;;;;16.75;8.60;;;1.00;99.90;;;;;;4961088;28;20047;-66
2021/12/09 04:18:24;;;;;;;16.77;8.75;;;1.00;99.90;;;;;;4959271;28;20470;-66
2021/12/09 04:20:50;;;;;;;19.52;9.55;;;1.00;99.90;;;;;;4960239;28;20035;-66
2021/12/09 04:23:16;;;;;;;20.90;9.02;;;1.00;99.90;;;;;;4958432;28;20035;-66
2021/12/09 04:25:42;;;;;;;15.77;8.35;;;1.00;99.90;;;;;;4943890;28;20058;-66
2021/12/09 04:28:07;;;;;;;15.90;9.45;;;0.90;99.90;;;;;;4959506;28;20042;-66
2021/12/09 04:30:33;;;;;;;17.17;9.48;;;1.00;99.90;;;;;;4960720;28;20134;-66
2021/12/09 04:32:59;;;;;;;18.48;8.85;;;0.90;99.90;;;;;;4959050;28;20406;-66
2021/12/09 04:35:25;;;;;;;17.70;8.80;;;0.90;99.90;;;;;;4938703;28;20043;-66
2021/12/09 04:37:51;;;;;;;15.82;8.13;;;0.90;99.90;;;;;;4957482;28;20051;-66
2021/12/09 04:40:17;;;;;;;14.02;8.52;;;0.90;99.90;;;;;;4961165;28;20041;-66
2021/12/09 04:42:43;;;;;;;17.65;8.40;;;0.90;99.90;;;;;;4961537;28;20038;-66
2021/12/09 04:45:10;;;;;;;15.55;8.95;;;0.90;99.90;;;;;;4958665;28;20051;-66
2021/12/09 04:47:37;;;;;;;21.65;8.80;;;0.90;99.90;;;;;;4957742;28;20043;-66
2021/12/09 04:50:07;;;;;;;15.85;8.75;;;0.90;99.90;;;;;;4961523;28;20562;-66
2021/12/09 04:52:33;;;;;;;15.23;8.45;;;0.90;99.90;;;;;;4957482;28;20093;-66
2021/12/09 04:54:58;;;;;;;18.40;8.75;;;0.80;99.90;;;;;;4961478;28;20442;-66
2021/12/09 04:57:24;;;;;;;16.00;9.57;;;0.80;99.90;;;;;;4962316;28;20035;-66
2021/12/09 04:59:51;;;;;;;12.88;8.93;;;0.80;99.90;;;;;;4948361;28;20062;-66
2021/12/09 05:05:10;;;;;;;10.80;8.43;;;0.80;99.90;;;;;;4942523;28;20102;-66
2021/12/09 05:07:36;;;;;;;15.40;9.25;;;0.80;99.90;;;;;;4960955;28;20506;-66
2021/12/09 05:10:03;;;;;;;19.25;8.90;;;0.70;99.90;;;;;;4963015;28;20047;-66
2021/12/09 05:12:29;;;;;;;15.82;8.32;;;0.70;99.90;;;;;;4965427;28;20093;-66
2021/12/09 05:14:55;;;;;;;17.45;9.20;;;0.70;99.90;;;;;;4963612;28;20043;-66
2021/12/09 05:17:21;;;;;;;16.17;8.90;;;0.80;99.90;;;;;;4961703;28;20035;-66
2021/12/09 05:19:47;;;;;;;21.20;8.90;;;0.70;99.90;;;;;;4966515;28;20086;-66
2021/12/09 05:22:15;;;;;;;15.52;8.77;;;0.70;99.90;;;;;;4962817;28;20463;-66
2021/12/09 05:24:41;;;;;;;15.40;8.57;;;0.70;99.90;;;;;;4963783;28;20054;-66
2021/12/09 05:27:09;;;;;;;16.77;9.18;;;0.70;99.90;;;;;;4964324;28;20043;-66
2021/12/09 05:29:40;;;;;;;18.77;9.55;;;0.70;99.90;;;;;;4961231;28;20400;-66
2021/12/09 05:32:07;;;;;;;16.05;9.20;;;0.70;99.90;;;;;;4965744;28;20051;-66
2021/12/09 05:34:39;;;;;;;22.90;9.48;;;0.70;99.90;;;;;;4961721;28;20062;-66
2021/12/09 05:37:06;;;;;;;20.15;8.77;;;0.60;99.90;;;;;;4964090;28;20055;-66
2021/12/09 05:39:33;;;;;;;19.92;9.18;;;0.50;99.90;;;;;;4966786;28;20096;-66
2021/12/09 05:41:59;;;;;;;20.70;9.05;;;0.70;99.90;;;;;;4962919;28;20122;-66
2021/12/09 05:44:26;;;;;;;21.92;9.32;;;0.50;99.90;;;;;;4959821;28;20079;-66
2021/12/09 05:46:52;;;;;;;21.67;9.90;;;0.70;99.90;;;;;;4965298;28;20118;-66
2021/12/09 05:49:19;;;;;;;16.60;8.80;;;0.60;99.90;;;;;;4961789;28;20059;-66
2021/12/09 05:51:45;;;;;;;17.48;9.18;;;0.60;99.90;;;;;;4963477;28;20047;-66
2021/12/09 05:54:11;;;;;;;19.48;8.63;;;0.60;99.90;;;;;;4955802;28;20035;-66
2021/12/09 05:56:37;;;;;;;19.23;9.10;;;0.60;99.90;;;;;;4964526;28;20093;-67
2021/12/09 05:59:05;;;;;;;20.23;9.05;;;0.60;99.90;;;;;;4962837;28;20074;-66
2021/12/09 06:01:31;;;;;;;16.73;9.27;;;0.60;99.90;;;;;;4958837;28;20053;-66
2021/12/09 06:03:57;;;;;;;18.02;9.18;;;0.60;99.90;;;;;;4956349;28;20047;-66
2021/12/09 06:06:22;;;;;;;17.35;8.43;;;0.60;99.90;;;;;;4960381;28;20129;-66
2021/12/09 06:08:49;;;;;;;17.05;8.98;;;0.60;99.90;;;;;;4957386;28;20039;-66
2021/12/09 06:11:14;;;;;;;17.00;8.27;;;0.60;99.90;;;;;;4962458;28;20123;-66
2021/12/09 06:13:40;;;;;;;16.63;8.30;;;0.60;99.90;;;;;;4962176;28;20410;-66
2021/12/09 06:16:07;;;;;;;18.83;8.60;;;0.50;99.90;;;;;;4959253;28;20043;-66
2021/12/09 06:18:33;;;;;;;15.95;8.05;;;0.60;99.90;;;;;;4958103;28;20066;-66
2021/12/09 06:20:59;;;;;;;19.13;8.80;;;0.60;99.90;;;;;;4955133;28;20493;-66
2021/12/09 06:23:25;;;;;;;18.85;8.63;;;0.60;99.90;;;;;;4967322;28;20035;-67
2021/12/09 06:25:51;;;;;;;17.77;8.75;;;0.60;99.90;;;;;;4960598;28;20316;-66
2021/12/09 06:28:18;;;;;;;20.35;9.60;;;0.60;99.90;;;;;;4969619;28;20166;-66
2021/12/09 06:30:44;;;;;;;22.60;9.55;;;0.50;99.90;;;;;;4961675;28;20615;-66
2021/12/09 06:33:10;;;;;;;15.05;8.70;;;0.60;99.90;;;;;;4961395;28;20096;-67
2021/12/09 06:35:37;;;;;;;18.00;8.40;;;0.60;99.90;;;;;;4954112;28;20051;-67
2021/12/09 06:38:03;;;;;;;20.65;9.25;;;0.60;99.90;;;;;;4963556;28;20058;-67
2021/12/09 06:40:29;;;;;;;21.15;8.95;;;0.50;99.90;;;;;;4964049;28;20090;-67
2021/12/09 06:42:55;;;;;;;16.30;8.23;;;0.50;99.90;;;;;;4956947;28;20043;-67
2021/12/09 06:45:22;;;;;;;18.73;8.80;;;0.60;99.90;;;;;;4959531;28;20622;-67
2021/12/09 06:47:49;;;;;;;20.58;8.90;;;0.90;99.90;;;;;;4955262;28;20547;-66
2021/12/09 06:50:18;;;;;;;17.88;8.88;;;0.60;99.90;;;;;;4953141;28;20059;-67
2021/12/09 06:52:44;;;;;;;16.48;8.48;;;0.50;99.90;;;;;;4957035;28;20522;-66
2021/12/09 06:55:12;;;;;;;16.88;8.80;;;0.60;99.90;;;;;;4937824;28;20042;-67
2021/12/09 06:57:39;;;;;;;17.40;8.35;;;0.50;99.90;;;;;;4957674;28;20482;-66
2021/12/09 07:00:08;;;;;;;17.58;8.95;;;0.50;99.90;;;;;;4957932;28;20044;-67
2021/12/09 07:02:34;;;;;;;16.17;8.95;;;0.50;99.90;;;;;;4960746;28;20050;-67
2021/12/09 07:05:01;;;;;;;17.65;8.02;;;0.50;99.90;;;;;;4952747;28;20043;-67
2021/12/09 07:07:26;;;;;;;17.25;8.50;;;0.50;99.90;;;;;;4965461;28;20035;-67
2021/12/09 07:09:52;;;;;;;18.77;8.75;;;0.50;99.90;;;;;;4955911;28;20114;-67
2021/12/09 07:12:18;;;;;;;16.95;8.10;;;0.60;99.90;;;;;;4969516;28;20038;-66
2021/12/09 07:14:44;;;;;;;18.70;8.27;;;0.60;99.90;;;;;;4964303;28;20122;-66
2021/12/09 07:17:11;;;;;;;18.30;8.15;;;0.60;99.90;;;;;;4960610;28;20165;-67
2021/12/09 07:19:37;;;;;;;16.33;7.78;;;0.80;99.90;;;;;;4957096;28;20054;-66
2021/12/09 07:22:04;;;;;;;18.23;8.10;;;0.60;99.90;;;;;;4964465;28;20104;-67
2021/12/09 07:24:30;;;;;;;17.13;7.97;;;0.60;99.90;;;;;;4963541;28;20411;-66
2021/12/09 07:26:57;;;;;;;19.70;8.82;;;0.60;99.90;;;;;;4958717;28;20047;-67
2021/12/09 07:29:24;;;;;;;16.92;8.57;;;0.70;99.90;;;;;;4951552;28;20756;-67
2021/12/09 07:31:49;;;;;;;15.90;8.32;;;0.60;99.90;;;;;;4969209;28;20035;-67
2021/12/09 07:34:16;;;;;;;17.85;8.50;;;0.70;99.90;;;;;;4963089;28;20057;-67
2021/12/09 07:36:42;;;;;;;24.98;7.82;;;0.70;99.90;;;;;;4953276;28;20415;-66
2021/12/09 07:39:08;;;;;;;22.20;9.00;;;0.70;99.90;;;;;;4957376;28;20046;-66
2021/12/09 07:41:34;;;;;;;17.80;8.15;;;0.70;99.90;;;;;;4958249;28;20033;-67
2021/12/09 07:44:02;;;;;;;17.63;8.50;;;0.80;99.90;;;;;;4970328;28;20459;-67
2021/12/09 07:46:29;;;;;;;13.90;7.97;;;0.80;99.90;;;;;;4960515;28;20050;-67
2021/12/09 07:48:55;;;;;;;21.65;8.30;;;0.80;99.90;;;;;;4964635;28;20511;-66
2021/12/09 07:51:21;;;;;;;15.82;7.75;;;0.80;99.90;;;;;;4957592;28;20046;-66
2021/12/09 07:53:46;;;;;;;18.40;8.20;;;0.80;99.90;;;;;;4957015;28;20146;-66
2021/12/09 07:56:12;;;;;;;16.48;7.97;;;0.80;99.90;;;;;;4960452;28;20088;-66
2021/12/09 07:58:38;;;;;;;15.88;8.25;;;0.80;99.90;;;;;;4955314;28;20106;-66
2021/12/09 08:01:04;;;;;;;18.67;7.97;;;0.80;99.90;;;;;;4963724;28;20078;-66
2021/12/09 08:03:30;;;;;;;22.50;8.73;;;0.80;99.90;;;;;;4954586;28;20035;-66
2021/12/09 08:05:56;;;;;;;17.02;8.23;;;1.00;99.90;;;;;;4949217;28;20054;-66
2021/12/09 08:08:22;;;;;;;19.17;8.32;;;0.90;99.90;;;;;;4951235;28;20102;-66
2021/12/09 08:10:48;;;;;;;17.27;7.57;;;0.90;99.90;;;;;;4935481;28;20050;-66
2021/12/09 08:13:14;;;;;;;17.35;7.47;;;0.90;99.90;;;;;;4949347;28;20054;-67
2021/12/09 08:15:45;;;;;;;17.17;7.60;;;1.00;99.90;;;;;;4954956;28;20046;-68
2021/12/09 08:18:33;;;;;;;17.95;8.30;;;1.00;99.90;;;;;;4958530;28;20039;-67
2021/12/09 08:21:01;;;;;;;17.00;7.88;;;1.00;99.90;;;;;;4964035;28;20122;-67
2021/12/09 08:23:28;;;;;;;21.25;7.93;;;1.00;99.90;;;;;;4959056;28;20043;-68
2021/12/09 08:25:57;;;;;;;21.65;8.13;;;1.10;99.90;;;;;;4955498;28;20051;-67
2021/12/09 08:28:23;;;;;;;17.92;8.50;;;1.10;99.90;;;;;;4959605;28;20467;-67
2021/12/09 08:30:50;;;;;;;20.33;8.10;;;1.10;99.90;;;;;;4965501;28;20043;-69
2021/12/09 08:33:18;;;;;;;15.57;7.78;;;1.20;99.90;;;;;;4965911;28;20113;-69
2021/12/09 08:35:44;;;;;;;22.23;7.88;;;1.20;99.90;;;;;;4954561;28;20043;-69
2021/12/09 08:38:10;;;;;;;19.33;7.68;;;1.20;99.90;;;;;;4961578;28;20150;-69
2021/12/09 08:40:36;;;;;;;20.45;7.75;;;1.20;99.90;;;;;;4956198;28;20046;-69
2021/12/09 08:43:03;;;;;;;15.07;7.38;;;1.30;99.90;;;;;;4958567;28;20061;-69
2021/12/09 08:45:29;;;;;;;17.73;8.13;;;1.30;99.90;;;;;;4958475;28;20061;-69
2021/12/09 08:47:54;;;;;;;14.45;7.65;;;1.30;99.90;;;;;;4945707;28;20645;-69
2021/12/09 08:50:23;;;;;;;16.88;7.38;;;1.40;99.90;;;;;;4953946;28;20126;-69
2021/12/09 08:52:52;;;;;;;17.63;7.95;;;1.40;99.90;;;;;;4962577;28;20134;-69
2021/12/09 08:55:19;;;;;;;17.77;7.50;;;1.40;99.90;;;;;;4968482;28;20083;-69
2021/12/09 08:57:46;;;;;;;20.95;7.25;;;1.40;99.90;;;;;;4965903;28;20060;-69
2021/12/09 09:00:15;;;;;;;17.15;7.25;;;1.50;99.90;;;;;;4957469;28;20054;-69
2021/12/09 09:02:43;;;;;;;13.70;6.95;;;1.40;99.90;;;;;;4959432;28;20489;-69
2021/12/09 09:05:11;;;;;;;13.80;7.28;;;1.50;99.90;;;;;;4967389;28;20039;-69
2021/12/09 09:07:41;;;;;;;17.85;7.07;;;1.50;99.90;;;;;;4963451;28;20162;-68
2021/12/09 09:10:08;;;;;;;14.52;6.85;;;1.50;99.90;;;;;;4954407;28;20106;-69
2021/12/09 09:12:34;;;;;;;15.55;6.35;;;1.50;99.90;;;;;;4950201;28;20051;-69
2021/12/09 09:15:11;;;;;;;16.60;7.78;;;1.50;99.90;;;;;;4961895;28;20550;-69
2021/12/09 09:17:37;;;;;;;14.52;5.78;;;1.60;99.90;;;;;;4958275;28;20121;-69
2021/12/09 09:20:06;;;;;;;13.75;6.53;;;1.60;99.90;;;;;;4956495;28;20134;-69
2021/12/09 09:22:32;;;;;;;19.25;7.05;;;1.60;99.90;;;;;;4954526;28;20049;-69
2021/12/09 09:24:58;;;;;;;13.20;6.70;;;1.60;99.90;;;;;;4945096;28;20106;-69
2021/12/09 09:27:24;;;;;;;17.10;6.90;;;1.70;99.90;;;;;;4956629;28;20042;-69
2021/12/09 09:29:50;;;;;;;13.70;7.00;;;1.70;99.90;;;;;;4954613;28;20058;-69
2021/12/09 09:32:16;;;;;;;15.50;6.70;;;1.70;99.90;;;;;;4939154;28;20031;-69
2021/12/09 09:34:42;;;;;;;16.75;7.15;;;1.80;99.90;;;;;;4955276;28;20522;-69
2021/12/09 09:37:08;;;;;;;15.45;6.80;;;1.80;99.90;;;;;;4963917;28;20514;-69
2021/12/09 09:39:34;;;;;;;15.75;6.82;;;2.20;99.90;;;;;;4957383;28;20050;-68
2021/12/09 09:44:49;;;;;;;18.48;6.38;;;1.90;99.90;;;;;;4952972;28;20075;-69
2021/12/09 09:47:18;;;;;;;15.35;6.80;;;1.90;99.90;;;;;;4959221;28;20047;-69
2021/12/09 09:49:43;;;;;;;13.45;6.40;;;2.00;99.90;;;;;;4957871;28;20051;-69
2021/12/09 09:52:10;;;;;;;12.57;6.13;;;2.00;99.90;;;;;;4955811;28;20054;-69
2021/12/09 09:54:37;;;;;;;12.98;6.28;;;2.30;99.90;;;;;;4953547;28;20190;-69
2021/12/09 09:57:04;;;;;;;17.65;6.57;;;3.20;99.90;;;;;;4951438;28;20042;-67
2021/12/09 09:59:30;;;;;;;17.55;6.38;;;2.20;99.90;;;;;;4969809;28;20090;-69
2021/12/09 10:01:56;;;;;;;12.40;5.78;;;2.30;99.90;;;;;;4953121;28;20046;-69
2021/12/09 10:05:07;;;;;;;14.30;6.07;;;2.40;99.90;;;;;;4961007;28;20054;-69
2021/12/09 10:07:18;;;;;;;15.15;6.32;;;2.50;99.90;;;;;;4948155;28;20059;-70
2021/12/09 10:09:44;;;;;;;14.45;6.13;;;2.50;99.90;;;;;;4957380;28;20157;-70
2021/12/09 10:12:10;;;;;;;15.77;6.03;;;3.10;99.90;;;;;;4960472;28;20050;-69
2021/12/09 10:14:37;;;;;;;14.35;6.68;;;2.70;99.90;;;;;;4954571;28;20059;-69
2021/12/09 10:17:02;;;;;;;12.77;5.68;;;2.70;99.90;;;;;;4939333;28;20607;-70
2021/12/09 10:19:28;;;;;;;10.95;5.97;;;2.80;99.90;;;;;;4952120;28;20047;-69
2021/12/09 10:22:22;;;;;;;15.82;6.57;;;2.80;99.90;;;;;;4960149;28;20055;-69
2021/12/09 10:24:53;;;;;;;13.90;5.82;;;2.80;99.90;;;;;;4955530;28;20069;-69
2021/12/09 10:27:33;;;;;;;11.63;5.80;;;2.90;99.90;;;;;;4961931;28;20066;-68
2021/12/09 10:30:14;;;;;;;16.55;6.38;;;3.00;99.90;;;;;;4961298;28;20050;-69
2021/12/09 10:32:41;;;;;;;13.05;6.10;;;3.00;99.90;;;;;;4950682;28;20066;-69
2021/12/09 10:35:15;;;;;;;14.27;5.68;;;3.20;99.90;;;;;;4956755;28;20035;-69
2021/12/09 10:37:46;;;;;;;11.35;5.85;;;3.10;99.90;;;;;;4972775;28;20097;-69
2021/12/09 10:40:29;;;;;;;14.07;6.68;;;3.50;99.90;;;;;;4946638;28;20520;-69
2021/12/09 10:43:02;;;;;;;14.35;6.30;;;3.10;99.90;;;;;;4958412;28;20109;-69
2021/12/09 10:45:32;;;;;;;17.08;6.53;;;3.20;99.90;;;;;;4957483;28;20043;-69
2021/12/09 10:48:16;;;;;;;11.95;6.70;;;2.80;99.90;;;;;;4950183;28;20054;-69
2021/12/09 10:56:30;;;;;;;14.93;6.90;;;3.30;99.90;;;;;;4957995;28;20043;-69
2021/12/09 10:58:56;;;;;;;18.15;7.15;;;3.30;99.90;;;;;;4962931;28;20054;-69
2021/12/09 11:01:24;;;;;;;16.08;7.45;;;3.40;99.90;;;;;;4960310;28;20042;-69
2021/12/09 11:03:53;;;;;;;20.02;8.45;;;3.40;99.90;;;;;;4952402;28;20078;-69
2021/12/09 11:06:30;;;;;;;17.10;9.27;;;3.40;99.90;;;;;;4963949;28;20061;-69
2021/12/09 11:08:59;;;;;;;16.00;8.25;;;3.40;99.90;;;;;;4957778;28;20051;-70
2021/12/09 11:11:32;;;;;;;18.73;8.55;;;3.50;99.90;;;;;;4956150;28;20061;-69
2021/12/09 11:14:09;;;;;;;16.02;8.60;;;3.50;99.90;;;;;;4955234;28;20050;-69
2021/12/09 11:16:43;;;;;;;20.58;9.35;;;3.60;99.90;;;;;;4952883;28;20050;-69
2021/12/09 11:19:48;;;;;;;15.82;9.10;;;3.60;99.90;;;;;;4954553;28;20043;-69
2021/12/09 11:22:18;;;;;;;17.55;9.15;;;3.60;99.90;;;;;;4950655;28;20074;-70
2021/12/09 11:24:48;;;;;;;18.80;8.47;;;3.70;99.90;;;;;;4953618;28;21086;-71
2021/12/09 11:27:18;;;;;;;15.75;8.50;;;3.60;99.90;;;;;;4979475;28;20057;-71
2021/12/09 11:29:48;;;;;;;18.67;9.13;;;4.00;99.90;;;;;;4939562;28;20055;-71
2021/12/09 11:35:02;;;;;;;21.48;10.02;;;4.60;99.90;;;;;;4953703;28;20414;-71
2021/12/09 11:37:38;;;;;;;21.77;9.73;;;3.60;99.90;;;;;;4951642;28;20067;-71
2021/12/09 11:40:31;;;;;;;21.20;9.70;;;3.70;99.90;;;;;;4956633;28;21366;-71
2021/12/09 11:43:00;;;;;;;24.08;9.63;;;3.70;99.90;;;;;;4963703;28;20035;-71
2021/12/09 11:45:37;;;;;;;18.25;10.05;;;3.70;99.90;;;;;;4958143;28;20055;-71
2021/12/09 11:48:05;;;;;;;17.02;10.10;;;3.80;99.90;;;;;;4951329;28;20138;-71
2021/12/09 11:50:38;;;;;;;21.85;10.13;;;3.80;99.90;;;;;;4951386;28;20046;-71
2021/12/09 11:53:07;;;;;;;19.13;10.20;;;3.80;99.90;;;;;;4956221;28;20049;-72
2021/12/09 11:55:38;;;;;;;20.10;10.30;;;3.80;99.90;;;;;;4955471;28;20070;-71
2021/12/09 12:06:51;;;;;;;21.67;10.75;;;3.90;99.90;;;;;;4956258;28;20051;-71
2021/12/09 12:12:24;;;;;;;19.50;10.80;;;3.90;99.90;;;;;;4966521;28;20053;-71
2021/12/09 12:14:53;;;;;;;21.42;11.35;;;3.90;99.90;;;;;;4964385;28;20059;-72
2021/12/09 12:17:42;;;;;;;17.92;10.57;;;3.90;99.90;;;;;;4955037;28;20055;-71
2021/12/09 12:28:25;;;;;;;22.85;12.38;;;4.00;99.90;;;;;;4976574;28;20043;-72
2021/12/09 12:31:13;;;;;;;29.23;11.88;;;4.30;99.90;;;;;;4957867;28;20054;-72
2021/12/09 12:34:38;;;;;;;26.80;12.75;;;4.00;99.90;;;;;;4957776;28;20051;-72
2021/12/09 12:39:59;;;;;;;26.33;12.50;;;4.30;99.90;;;;;;4955749;28;20061;-72
2021/12/09 12:42:39;;;;;;;21.70;11.50;;;4.20;99.90;;;;;;4949860;28;20047;-72
2021/12/09 12:46:11;;;;;;;26.67;11.82;;;4.20;99.90;;;;;;4957137;28;20169;-72
2021/12/09 12:54:58;;;;;;;25.25;12.98;;;4.20;99.90;;;;;;4976747;28;20077;-72
2021/12/09 12:57:12;;;;;;;26.55;12.63;;;4.20;99.90;;;;;;4947613;28;20043;-71
2021/12/09 12:59:40;;;;;;;20.42;12.07;;;4.20;99.90;;;;;;4954641;28;20114;-72
2021/12/09 13:02:29;;;;;;;27.67;12.48;;;4.50;99.90;;;;;;4952451;28;20042;-72
2021/12/09 13:11:21;;;;;;;20.00;11.57;;;4.30;99.90;;;;;;4953778;28;20047;-71
2021/12/09 13:13:30;;;;;;;22.17;11.90;;;4.30;99.90;;;;;;4950846;28;20089;-72
2021/12/09 13:16:12;;;;;;;21.92;12.15;;;4.40;99.90;;;;;;4958992;28;20130;-72
2021/12/09 13:18:41;;;;;;;20.60;12.05;;;4.30;99.90;;;;;;4959239;28;20126;-72
2021/12/09 13:21:31;;;;;;;20.52;11.95;;;4.30;99.90;;;;;;4958051;28;20369;-72
2021/12/09 13:24:20;;;;;;;24.13;11.02;;;4.30;99.90;;;;;;4966362;28;20491;-71
2021/12/09 13:27:07;;;;;;;22.85;12.07;;;4.20;99.90;;;;;;4960413;28;20051;-72
2021/12/09 13:33:11;;;;;;;21.15;11.18;;;4.40;99.90;;;;;;4923932;28;20047;-72
2021/12/09 13:46:21;;;;;;;20.27;10.68;;;4.40;99.90;;;;;;4962277;28;20196;-72
2021/12/09 13:49:16;;;;;;;26.02;11.35;;;4.30;99.90;;;;;;4959092;28;20113;-72
2021/12/09 13:54:24;;;;;;;17.42;10.50;;;4.30;99.90;;;;;;4962996;28;20121;-72
2021/12/09 13:57:01;;;;;;;20.40;10.15;;;4.40;99.90;;;;;;4960665;28;21492;-72
2021/12/09 13:59:30;;;;;;;19.65;10.05;;;4.40;99.90;;;;;;4963533;28;20051;-72
2021/12/09 14:01:58;;;;;;;20.85;10.80;;;4.40;99.90;;;;;;4961142;28;20071;-72
2021/12/09 14:04:32;;;;;;;22.88;11.52;;;;;;;;;;4958037;28;21303;-72
2021/12/09 14:07:09;;;;;;;21.95;10.57;;;;;;;;;;4956061;28;20097;-72
2021/12/09 14:09:37;;;;;;;18.17;10.50;;;;;;;;;;4953963;28;20106;-72